sensor_id;sensor_type;location;lat;lon;timestamp;P1;P2;P0
77365;PMS5003;66430;50.182;11.704;2023-03-18T00:01:42;25;22;
77365;PMS5003;66430;50.182;11.704;2023-03-18T00:04:08;26;23;
77365;PMS5003;66430;50.182;11.704;2023-03-18T00:06:35;21;20;
77365;PMS5003;66430;50.182;11.704;2023-03-18T00:08:59;22;22;
77365;PMS5003;66430;50.182;11.704;2023-03-18T00:11:25;20;20;
77365;PMS5003;66430;50.182;11.704;2023-03-18T00:13:50;20;17;
77365;PMS5003;66430;50.182;11.704;2023-03-18T00:16:16;22;20;
77365;PMS5003;66430;50.182;11.704;2023-03-18T00:18:41;23;18;
77365;PMS5003;66430;50.182;11.704;2023-03-18T00:21:07;24;21;
77365;PMS5003;66430;50.182;11.704;2023-03-18T00:23:33;20;19;
77365;PMS5003;66430;50.182;11.704;2023-03-18T00:25:58;22;19;
77365;PMS5003;66430;50.182;11.704;2023-03-18T00:28:24;27;26;
77365;PMS5003;66430;50.182;11.704;2023-03-18T00:30:49;16;16;
77365;PMS5003;66430;50.182;11.704;2023-03-18T00:33:14;20;20;
77365;PMS5003;66430;50.182;11.704;2023-03-18T00:35:39;19;16;
77365;PMS5003;66430;50.182;11.704;2023-03-18T00:38:05;18;17;
77365;PMS5003;66430;50.182;11.704;2023-03-18T00:40:31;18;15;
77365;PMS5003;66430;50.182;11.704;2023-03-18T00:42:56;22;20;
77365;PMS5003;66430;50.182;11.704;2023-03-18T00:45:22;18;18;
77365;PMS5003;66430;50.182;11.704;2023-03-18T00:47:48;20;18;
77365;PMS5003;66430;50.182;11.704;2023-03-18T00:50:13;23;21;
77365;PMS5003;66430;50.182;11.704;2023-03-18T00:52:40;17;15;
77365;PMS5003;66430;50.182;11.704;2023-03-18T00:55:05;21;19;
77365;PMS5003;66430;50.182;11.704;2023-03-18T00:57:31;22;21;
77365;PMS5003;66430;50.182;11.704;2023-03-18T00:59:56;18;17;
77365;PMS5003;66430;50.182;11.704;2023-03-18T01:02:21;22;17;
77365;PMS5003;66430;50.182;11.704;2023-03-18T01:04:47;20;18;
77365;PMS5003;66430;50.182;11.704;2023-03-18T01:07:12;20;19;
77365;PMS5003;66430;50.182;11.704;2023-03-18T01:09:39;20;16;
77365;PMS5003;66430;50.182;11.704;2023-03-18T01:12:04;18;18;
77365;PMS5003;66430;50.182;11.704;2023-03-18T01:14:29;23;23;
77365;PMS5003;66430;50.182;11.704;2023-03-18T01:16:54;17;17;
77365;PMS5003;66430;50.182;11.704;2023-03-18T01:19:19;19;18;
77365;PMS5003;66430;50.182;11.704;2023-03-18T01:21:44;19;19;
77365;PMS5003;66430;50.182;11.704;2023-03-18T01:24:10;22;19;
77365;PMS5003;66430;50.182;11.704;2023-03-18T01:26:35;20;19;
77365;PMS5003;66430;50.182;11.704;2023-03-18T01:29:00;21;19;
77365;PMS5003;66430;50.182;11.704;2023-03-18T01:31:26;20;17;
77365;PMS5003;66430;50.182;11.704;2023-03-18T01:33:51;21;17;
77365;PMS5003;66430;50.182;11.704;2023-03-18T01:36:17;19;17;
77365;PMS5003;66430;50.182;11.704;2023-03-18T01:38:42;13;13;
77365;PMS5003;66430;50.182;11.704;2023-03-18T01:41:08;16;16;
77365;PMS5003;66430;50.182;11.704;2023-03-18T01:43:34;17;17;
77365;PMS5003;66430;50.182;11.704;2023-03-18T01:46:00;18;18;
77365;PMS5003;66430;50.182;11.704;2023-03-18T01:48:26;22;18;
77365;PMS5003;66430;50.182;11.704;2023-03-18T01:50:51;16;16;
77365;PMS5003;66430;50.182;11.704;2023-03-18T01:53:16;13;11;
77365;PMS5003;66430;50.182;11.704;2023-03-18T01:55:41;14;14;
77365;PMS5003;66430;50.182;11.704;2023-03-18T01:58:08;15;15;
77365;PMS5003;66430;50.182;11.704;2023-03-18T02:00:32;17;14;
77365;PMS5003;66430;50.182;11.704;2023-03-18T02:02:57;15;12;
77365;PMS5003;66430;50.182;11.704;2023-03-18T02:05:24;21;17;
77365;PMS5003;66430;50.182;11.704;2023-03-18T02:07:49;15;13;
77365;PMS5003;66430;50.182;11.704;2023-03-18T02:10:16;17;17;
77365;PMS5003;66430;50.182;11.704;2023-03-18T02:12:41;16;14;
77365;PMS5003;66430;50.182;11.704;2023-03-18T02:15:06;17;15;
77365;PMS5003;66430;50.182;11.704;2023-03-18T02:17:31;18;18;
77365;PMS5003;66430;50.182;11.704;2023-03-18T02:20:03;15;14;
77365;PMS5003;66430;50.182;11.704;2023-03-18T02:22:24;15;15;
77365;PMS5003;66430;50.182;11.704;2023-03-18T02:24:48;17;17;
77365;PMS5003;66430;50.182;11.704;2023-03-18T02:27:14;16;14;
77365;PMS5003;66430;50.182;11.704;2023-03-18T02:29:37;14;14;
77365;PMS5003;66430;50.182;11.704;2023-03-18T02:32:03;15;15;
77365;PMS5003;66430;50.182;11.704;2023-03-18T02:34:27;13;13;
77365;PMS5003;66430;50.182;11.704;2023-03-18T02:36:53;16;14;
77365;PMS5003;66430;50.182;11.704;2023-03-18T02:39:18;15;13;
77365;PMS5003;66430;50.182;11.704;2023-03-18T02:41:44;17;15;
77365;PMS5003;66430;50.182;11.704;2023-03-18T02:44:09;21;19;
77365;PMS5003;66430;50.182;11.704;2023-03-18T02:46:37;18;17;
77365;PMS5003;66430;50.182;11.704;2023-03-18T02:49:02;20;20;
77365;PMS5003;66430;50.182;11.704;2023-03-18T02:51:26;18;18;
77365;PMS5003;66430;50.182;11.704;2023-03-18T02:53:53;18;17;
77365;PMS5003;66430;50.182;11.704;2023-03-18T02:56:17;18;16;
77365;PMS5003;66430;50.182;11.704;2023-03-18T02:58:43;18;17;
77365;PMS5003;66430;50.182;11.704;2023-03-18T03:01:10;21;21;
77365;PMS5003;66430;50.182;11.704;2023-03-18T03:03:35;16;16;
77365;PMS5003;66430;50.182;11.704;2023-03-18T03:06:02;18;15;
77365;PMS5003;66430;50.182;11.704;2023-03-18T03:08:24;18;15;
77365;PMS5003;66430;50.182;11.704;2023-03-18T03:10:50;22;21;
77365;PMS5003;66430;50.182;11.704;2023-03-18T03:13:15;16;16;
77365;PMS5003;66430;50.182;11.704;2023-03-18T03:15:41;14;14;
77365;PMS5003;66430;50.182;11.704;2023-03-18T03:18:06;16;16;
77365;PMS5003;66430;50.182;11.704;2023-03-18T03:20:33;17;17;
77365;PMS5003;66430;50.182;11.704;2023-03-18T03:22:58;21;18;
77365;PMS5003;66430;50.182;11.704;2023-03-18T03:25:23;23;22;
77365;PMS5003;66430;50.182;11.704;2023-03-18T03:27:50;17;17;
77365;PMS5003;66430;50.182;11.704;2023-03-18T03:30:14;20;19;
77365;PMS5003;66430;50.182;11.704;2023-03-18T03:32:40;18;17;
77365;PMS5003;66430;50.182;11.704;2023-03-18T03:35:05;18;17;
77365;PMS5003;66430;50.182;11.704;2023-03-18T03:37:31;20;17;
77365;PMS5003;66430;50.182;11.704;2023-03-18T03:39:56;17;16;
77365;PMS5003;66430;50.182;11.704;2023-03-18T03:42:21;16;16;
77365;PMS5003;66430;50.182;11.704;2023-03-18T03:44:46;26;21;
77365;PMS5003;66430;50.182;11.704;2023-03-18T03:47:12;17;16;
77365;PMS5003;66430;50.182;11.704;2023-03-18T03:49:37;20;20;
77365;PMS5003;66430;50.182;11.704;2023-03-18T03:52:03;19;19;
77365;PMS5003;66430;50.182;11.704;2023-03-18T03:54:28;18;16;
77365;PMS5003;66430;50.182;11.704;2023-03-18T03:56:53;22;17;
77365;PMS5003;66430;50.182;11.704;2023-03-18T03:59:19;18;16;
77365;PMS5003;66430;50.182;11.704;2023-03-18T04:01:44;17;17;
77365;PMS5003;66430;50.182;11.704;2023-03-18T04:04:10;17;15;
77365;PMS5003;66430;50.182;11.704;2023-03-18T04:06:35;16;16;
77365;PMS5003;66430;50.182;11.704;2023-03-18T04:09:01;22;19;
77365;PMS5003;66430;50.182;11.704;2023-03-18T04:11:26;23;22;
77365;PMS5003;66430;50.182;11.704;2023-03-18T04:13:52;17;16;
77365;PMS5003;66430;50.182;11.704;2023-03-18T04:16:17;16;16;
77365;PMS5003;66430;50.182;11.704;2023-03-18T04:18:42;22;21;
77365;PMS5003;66430;50.182;11.704;2023-03-18T04:21:07;21;18;
77365;PMS5003;66430;50.182;11.704;2023-03-18T04:23:33;18;18;
77365;PMS5003;66430;50.182;11.704;2023-03-18T04:25:58;20;17;
77365;PMS5003;66430;50.182;11.704;2023-03-18T04:28:23;18;18;
77365;PMS5003;66430;50.182;11.704;2023-03-18T04:30:48;24;19;
77365;PMS5003;66430;50.182;11.704;2023-03-18T04:33:14;16;15;
77365;PMS5003;66430;50.182;11.704;2023-03-18T04:35:40;17;14;
77365;PMS5003;66430;50.182;11.704;2023-03-18T04:38:05;18;18;
77365;PMS5003;66430;50.182;11.704;2023-03-18T04:40:32;17;14;
77365;PMS5003;66430;50.182;11.704;2023-03-18T04:42:56;21;18;
77365;PMS5003;66430;50.182;11.704;2023-03-18T04:45:21;27;22;
77365;PMS5003;66430;50.182;11.704;2023-03-18T04:47:46;19;19;
77365;PMS5003;66430;50.182;11.704;2023-03-18T04:50:12;17;16;
77365;PMS5003;66430;50.182;11.704;2023-03-18T04:52:37;19;17;
77365;PMS5003;66430;50.182;11.704;2023-03-18T04:55:03;15;15;
77365;PMS5003;66430;50.182;11.704;2023-03-18T04:57:28;16;14;
77365;PMS5003;66430;50.182;11.704;2023-03-18T04:59:53;23;21;
77365;PMS5003;66430;50.182;11.704;2023-03-18T05:02:19;24;23;
77365;PMS5003;66430;50.182;11.704;2023-03-18T05:04:45;20;16;
77365;PMS5003;66430;50.182;11.704;2023-03-18T05:07:11;14;14;
77365;PMS5003;66430;50.182;11.704;2023-03-18T05:09:35;16;14;
77365;PMS5003;66430;50.182;11.704;2023-03-18T05:12:01;20;19;
77365;PMS5003;66430;50.182;11.704;2023-03-18T05:14:26;18;16;
77365;PMS5003;66430;50.182;11.704;2023-03-18T05:16:51;21;14;
77365;PMS5003;66430;50.182;11.704;2023-03-18T05:19:17;19;19;
77365;PMS5003;66430;50.182;11.704;2023-03-18T05:21:42;17;15;
77365;PMS5003;66430;50.182;11.704;2023-03-18T05:24:08;13;11;
77365;PMS5003;66430;50.182;11.704;2023-03-18T05:26:33;16;14;
77365;PMS5003;66430;50.182;11.704;2023-03-18T05:28:59;19;19;
77365;PMS5003;66430;50.182;11.704;2023-03-18T05:31:24;14;14;
77365;PMS5003;66430;50.182;11.704;2023-03-18T05:33:50;16;14;
77365;PMS5003;66430;50.182;11.704;2023-03-18T05:36:16;15;14;
77365;PMS5003;66430;50.182;11.704;2023-03-18T05:38:41;19;17;
77365;PMS5003;66430;50.182;11.704;2023-03-18T05:41:07;15;15;
77365;PMS5003;66430;50.182;11.704;2023-03-18T05:43:33;20;17;
77365;PMS5003;66430;50.182;11.704;2023-03-18T05:45:58;19;16;
77365;PMS5003;66430;50.182;11.704;2023-03-18T05:48:24;17;16;
77365;PMS5003;66430;50.182;11.704;2023-03-18T05:50:50;20;19;
77365;PMS5003;66430;50.182;11.704;2023-03-18T05:53:15;13;13;
77365;PMS5003;66430;50.182;11.704;2023-03-18T05:55:41;19;17;
77365;PMS5003;66430;50.182;11.704;2023-03-18T05:58:05;12;12;
77365;PMS5003;66430;50.182;11.704;2023-03-18T06:00:31;13;13;
77365;PMS5003;66430;50.182;11.704;2023-03-18T06:02:57;15;15;
77365;PMS5003;66430;50.182;11.704;2023-03-18T06:05:23;18;16;
77365;PMS5003;66430;50.182;11.704;2023-03-18T06:07:48;14;14;
77365;PMS5003;66430;50.182;11.704;2023-03-18T06:10:14;20;17;
77365;PMS5003;66430;50.182;11.704;2023-03-18T06:12:39;17;15;
77365;PMS5003;66430;50.182;11.704;2023-03-18T06:15:05;20;13;
77365;PMS5003;66430;50.182;11.704;2023-03-18T06:17:30;23;22;
77365;PMS5003;66430;50.182;11.704;2023-03-18T06:19:55;21;19;
77365;PMS5003;66430;50.182;11.704;2023-03-18T06:22:21;22;21;
77365;PMS5003;66430;50.182;11.704;2023-03-18T06:24:46;19;19;
77365;PMS5003;66430;50.182;11.704;2023-03-18T06:27:12;21;18;
77365;PMS5003;66430;50.182;11.704;2023-03-18T06:29:37;22;16;
77365;PMS5003;66430;50.182;11.704;2023-03-18T06:32:03;21;17;
77365;PMS5003;66430;50.182;11.704;2023-03-18T06:34:27;24;23;
77365;PMS5003;66430;50.182;11.704;2023-03-18T06:36:53;20;20;
77365;PMS5003;66430;50.182;11.704;2023-03-18T06:39:18;20;18;
77365;PMS5003;66430;50.182;11.704;2023-03-18T06:41:44;16;15;
77365;PMS5003;66430;50.182;11.704;2023-03-18T06:44:10;24;18;
77365;PMS5003;66430;50.182;11.704;2023-03-18T06:46:35;15;15;
77365;PMS5003;66430;50.182;11.704;2023-03-18T06:49:01;17;15;
77365;PMS5003;66430;50.182;11.704;2023-03-18T06:51:26;25;23;
77365;PMS5003;66430;50.182;11.704;2023-03-18T06:53:52;23;21;
77365;PMS5003;66430;50.182;11.704;2023-03-18T06:56:17;26;23;
77365;PMS5003;66430;50.182;11.704;2023-03-18T06:58:42;29;26;
77365;PMS5003;66430;50.182;11.704;2023-03-18T07:01:08;25;25;
77365;PMS5003;66430;50.182;11.704;2023-03-18T07:03:33;25;24;
77365;PMS5003;66430;50.182;11.704;2023-03-18T07:05:58;28;22;
77365;PMS5003;66430;50.182;11.704;2023-03-18T07:08:24;30;24;
77365;PMS5003;66430;50.182;11.704;2023-03-18T07:10:50;26;25;
77365;PMS5003;66430;50.182;11.704;2023-03-18T07:13:15;31;29;
77365;PMS5003;66430;50.182;11.704;2023-03-18T07:15:40;28;25;
77365;PMS5003;66430;50.182;11.704;2023-03-18T07:18:06;28;27;
77365;PMS5003;66430;50.182;11.704;2023-03-18T07:20:31;27;24;
77365;PMS5003;66430;50.182;11.704;2023-03-18T07:22:57;32;29;
77365;PMS5003;66430;50.182;11.704;2023-03-18T07:25:22;24;22;
77365;PMS5003;66430;50.182;11.704;2023-03-18T07:27:48;25;23;
77365;PMS5003;66430;50.182;11.704;2023-03-18T07:30:14;26;24;
77365;PMS5003;66430;50.182;11.704;2023-03-18T07:32:40;24;22;
77365;PMS5003;66430;50.182;11.704;2023-03-18T07:35:05;26;24;
77365;PMS5003;66430;50.182;11.704;2023-03-18T07:37:31;19;19;
77365;PMS5003;66430;50.182;11.704;2023-03-18T07:39:56;23;22;
77365;PMS5003;66430;50.182;11.704;2023-03-18T07:42:22;26;22;
77365;PMS5003;66430;50.182;11.704;2023-03-18T07:44:47;23;21;
77365;PMS5003;66430;50.182;11.704;2023-03-18T07:47:13;28;24;
77365;PMS5003;66430;50.182;11.704;2023-03-18T07:49:38;23;18;
77365;PMS5003;66430;50.182;11.704;2023-03-18T07:52:04;18;17;
77365;PMS5003;66430;50.182;11.704;2023-03-18T07:54:29;20;19;
77365;PMS5003;66430;50.182;11.704;2023-03-18T07:56:54;20;17;
77365;PMS5003;66430;50.182;11.704;2023-03-18T07:59:19;20;18;
77365;PMS5003;66430;50.182;11.704;2023-03-18T08:01:45;18;16;
77365;PMS5003;66430;50.182;11.704;2023-03-18T08:04:11;21;20;
77365;PMS5003;66430;50.182;11.704;2023-03-18T08:06:36;17;17;
77365;PMS5003;66430;50.182;11.704;2023-03-18T08:09:02;17;16;
77365;PMS5003;66430;50.182;11.704;2023-03-18T08:11:27;16;14;
77365;PMS5003;66430;50.182;11.704;2023-03-18T08:13:53;18;18;
77365;PMS5003;66430;50.182;11.704;2023-03-18T08:16:18;13;13;
77365;PMS5003;66430;50.182;11.704;2023-03-18T08:18:43;16;16;
77365;PMS5003;66430;50.182;11.704;2023-03-18T08:21:08;18;18;
77365;PMS5003;66430;50.182;11.704;2023-03-18T08:23:34;14;14;
77365;PMS5003;66430;50.182;11.704;2023-03-18T08:26:00;16;15;
77365;PMS5003;66430;50.182;11.704;2023-03-18T08:28:25;17;17;
77365;PMS5003;66430;50.182;11.704;2023-03-18T08:30:52;16;15;
77365;PMS5003;66430;50.182;11.704;2023-03-18T08:33:16;20;16;
77365;PMS5003;66430;50.182;11.704;2023-03-18T08:35:42;20;16;
77365;PMS5003;66430;50.182;11.704;2023-03-18T08:38:08;14;13;
77365;PMS5003;66430;50.182;11.704;2023-03-18T08:40:34;17;14;
77365;PMS5003;66430;50.182;11.704;2023-03-18T08:42:58;18;17;
77365;PMS5003;66430;50.182;11.704;2023-03-18T08:45:24;19;17;
77365;PMS5003;66430;50.182;11.704;2023-03-18T08:47:50;16;14;
77365;PMS5003;66430;50.182;11.704;2023-03-18T08:50:15;19;18;
77365;PMS5003;66430;50.182;11.704;2023-03-18T08:52:41;19;17;
77365;PMS5003;66430;50.182;11.704;2023-03-18T08:55:07;18;16;
77365;PMS5003;66430;50.182;11.704;2023-03-18T08:57:32;16;15;
77365;PMS5003;66430;50.182;11.704;2023-03-18T08:59:58;22;21;
77365;PMS5003;66430;50.182;11.704;2023-03-18T09:02:23;16;16;
77365;PMS5003;66430;50.182;11.704;2023-03-18T09:04:48;16;14;
77365;PMS5003;66430;50.182;11.704;2023-03-18T09:07:13;18;15;
77365;PMS5003;66430;50.182;11.704;2023-03-18T09:09:39;12;12;
77365;PMS5003;66430;50.182;11.704;2023-03-18T09:12:05;13;12;
77365;PMS5003;66430;50.182;11.704;2023-03-18T09:14:30;14;13;
77365;PMS5003;66430;50.182;11.704;2023-03-18T09:16:55;19;13;
77365;PMS5003;66430;50.182;11.704;2023-03-18T09:19:20;16;14;
77365;PMS5003;66430;50.182;11.704;2023-03-18T09:21:46;17;16;
77365;PMS5003;66430;50.182;11.704;2023-03-18T09:24:11;17;15;
77365;PMS5003;66430;50.182;11.704;2023-03-18T09:26:36;13;13;
77365;PMS5003;66430;50.182;11.704;2023-03-18T09:29:02;14;13;
77365;PMS5003;66430;50.182;11.704;2023-03-18T09:31:27;15;14;
77365;PMS5003;66430;50.182;11.704;2023-03-18T09:33:53;14;14;
77365;PMS5003;66430;50.182;11.704;2023-03-18T09:36:18;14;14;
77365;PMS5003;66430;50.182;11.704;2023-03-18T09:38:43;13;12;
77365;PMS5003;66430;50.182;11.704;2023-03-18T09:41:15;18;18;
77365;PMS5003;66430;50.182;11.704;2023-03-18T09:43:38;25;18;
77365;PMS5003;66430;50.182;11.704;2023-03-18T09:46:02;15;15;
77365;PMS5003;66430;50.182;11.704;2023-03-18T09:48:29;15;14;
77365;PMS5003;66430;50.182;11.704;2023-03-18T09:50:51;15;15;
77365;PMS5003;66430;50.182;11.704;2023-03-18T09:53:17;18;17;
77365;PMS5003;66430;50.182;11.704;2023-03-18T09:55:41;16;16;
77365;PMS5003;66430;50.182;11.704;2023-03-18T09:58:07;17;15;
77365;PMS5003;66430;50.182;11.704;2023-03-18T10:00:32;12;12;
77365;PMS5003;66430;50.182;11.704;2023-03-18T10:02:57;18;18;
77365;PMS5003;66430;50.182;11.704;2023-03-18T10:05:23;22;19;
77365;PMS5003;66430;50.182;11.704;2023-03-18T10:07:49;13;12;
77365;PMS5003;66430;50.182;11.704;2023-03-18T10:10:15;11;11;
77365;PMS5003;66430;50.182;11.704;2023-03-18T10:12:38;16;14;
77365;PMS5003;66430;50.182;11.704;2023-03-18T10:15:09;13;12;
77365;PMS5003;66430;50.182;11.704;2023-03-18T10:17:30;15;13;
77365;PMS5003;66430;50.182;11.704;2023-03-18T10:19:54;18;14;
77365;PMS5003;66430;50.182;11.704;2023-03-18T10:22:29;17;15;
77365;PMS5003;66430;50.182;11.704;2023-03-18T10:24:46;14;14;
77365;PMS5003;66430;50.182;11.704;2023-03-18T10:27:13;17;17;
77365;PMS5003;66430;50.182;11.704;2023-03-18T10:29:37;18;18;
77365;PMS5003;66430;50.182;11.704;2023-03-18T10:32:02;15;14;
77365;PMS5003;66430;50.182;11.704;2023-03-18T10:34:26;16;14;
77365;PMS5003;66430;50.182;11.704;2023-03-18T10:36:53;21;18;
77365;PMS5003;66430;50.182;11.704;2023-03-18T10:39:16;14;11;
77365;PMS5003;66430;50.182;11.704;2023-03-18T10:41:41;13;13;
77365;PMS5003;66430;50.182;11.704;2023-03-18T10:44:10;12;11;
77365;PMS5003;66430;50.182;11.704;2023-03-18T10:46:32;14;13;
77365;PMS5003;66430;50.182;11.704;2023-03-18T10:48:58;12;11;
77365;PMS5003;66430;50.182;11.704;2023-03-18T10:51:25;14;13;
77365;PMS5003;66430;50.182;11.704;2023-03-18T10:53:51;19;19;
77365;PMS5003;66430;50.182;11.704;2023-03-18T10:56:14;15;15;
77365;PMS5003;66430;50.182;11.704;2023-03-18T10:58:39;12;12;
77365;PMS5003;66430;50.182;11.704;2023-03-18T11:01:04;19;17;
77365;PMS5003;66430;50.182;11.704;2023-03-18T11:03:30;14;13;
77365;PMS5003;66430;50.182;11.704;2023-03-18T11:05:55;20;18;
77365;PMS5003;66430;50.182;11.704;2023-03-18T11:08:29;15;14;
77365;PMS5003;66430;50.182;11.704;2023-03-18T11:10:45;12;12;
77365;PMS5003;66430;50.182;11.704;2023-03-18T11:13:13;15;13;
77365;PMS5003;66430;50.182;11.704;2023-03-18T11:15:36;11;9;
77365;PMS5003;66430;50.182;11.704;2023-03-18T11:18:01;10;9;
77365;PMS5003;66430;50.182;11.704;2023-03-18T11:20:31;12;12;
77365;PMS5003;66430;50.182;11.704;2023-03-18T11:22:52;11;9;
77365;PMS5003;66430;50.182;11.704;2023-03-18T11:25:18;12;12;
77365;PMS5003;66430;50.182;11.704;2023-03-18T11:27:43;12;11;
77365;PMS5003;66430;50.182;11.704;2023-03-18T11:30:11;9;9;
77365;PMS5003;66430;50.182;11.704;2023-03-18T11:32:34;9;9;
77365;PMS5003;66430;50.182;11.704;2023-03-18T11:34:59;13;12;
77365;PMS5003;66430;50.182;11.704;2023-03-18T11:37:26;19;17;
77365;PMS5003;66430;50.182;11.704;2023-03-18T11:39:50;13;12;
77365;PMS5003;66430;50.182;11.704;2023-03-18T11:42:16;15;13;
77365;PMS5003;66430;50.182;11.704;2023-03-18T11:44:40;14;14;
77365;PMS5003;66430;50.182;11.704;2023-03-18T11:47:08;9;9;
77365;PMS5003;66430;50.182;11.704;2023-03-18T11:49:31;14;10;
77365;PMS5003;66430;50.182;11.704;2023-03-18T11:52:01;11;11;
77365;PMS5003;66430;50.182;11.704;2023-03-18T11:54:26;10;10;
77365;PMS5003;66430;50.182;11.704;2023-03-18T11:56:48;10;9;
77365;PMS5003;66430;50.182;11.704;2023-03-18T11:59:16;10;10;
77365;PMS5003;66430;50.182;11.704;2023-03-18T12:01:40;9;8;
77365;PMS5003;66430;50.182;11.704;2023-03-18T12:04:07;9;8;
77365;PMS5003;66430;50.182;11.704;2023-03-18T12:06:29;7;7;
77365;PMS5003;66430;50.182;11.704;2023-03-18T12:08:58;11;10;
77365;PMS5003;66430;50.182;11.704;2023-03-18T12:11:21;12;10;
77365;PMS5003;66430;50.182;11.704;2023-03-18T12:13:48;10;7;
77365;PMS5003;66430;50.182;11.704;2023-03-18T12:16:11;12;10;
77365;PMS5003;66430;50.182;11.704;2023-03-18T12:18:40;9;8;
77365;PMS5003;66430;50.182;11.704;2023-03-18T12:21:03;10;10;
77365;PMS5003;66430;50.182;11.704;2023-03-18T12:23:34;11;8;
77365;PMS5003;66430;50.182;11.704;2023-03-18T12:25:55;11;11;
77365;PMS5003;66430;50.182;11.704;2023-03-18T12:28:19;9;8;
77365;PMS5003;66430;50.182;11.704;2023-03-18T12:30:47;8;8;
77365;PMS5003;66430;50.182;11.704;2023-03-18T12:33:08;9;9;
77365;PMS5003;66430;50.182;11.704;2023-03-18T12:35:36;8;8;
77365;PMS5003;66430;50.182;11.704;2023-03-18T12:38:05;8;8;
77365;PMS5003;66430;50.182;11.704;2023-03-18T12:40:30;10;9;
77365;PMS5003;66430;50.182;11.704;2023-03-18T12:42:54;7;7;
77365;PMS5003;66430;50.182;11.704;2023-03-18T12:45:14;8;6;
77365;PMS5003;66430;50.182;11.704;2023-03-18T12:47:40;8;8;
77365;PMS5003;66430;50.182;11.704;2023-03-18T12:50:05;6;6;
77365;PMS5003;66430;50.182;11.704;2023-03-18T12:52:32;8;8;
77365;PMS5003;66430;50.182;11.704;2023-03-18T12:54:58;9;7;
77365;PMS5003;66430;50.182;11.704;2023-03-18T12:57:22;7;5;
77365;PMS5003;66430;50.182;11.704;2023-03-18T12:59:47;7;7;
77365;PMS5003;66430;50.182;11.704;2023-03-18T13:02:15;5;4;
77365;PMS5003;66430;50.182;11.704;2023-03-18T13:04:36;5;4;
77365;PMS5003;66430;50.182;11.704;2023-03-18T13:07:04;7;7;
77365;PMS5003;66430;50.182;11.704;2023-03-18T13:09:31;6;6;
77365;PMS5003;66430;50.182;11.704;2023-03-18T13:11:58;5;5;
77365;PMS5003;66430;50.182;11.704;2023-03-18T13:14:20;7;7;
77365;PMS5003;66430;50.182;11.704;2023-03-18T13:16:44;4;4;
77365;PMS5003;66430;50.182;11.704;2023-03-18T13:19:09;6;6;
77365;PMS5003;66430;50.182;11.704;2023-03-18T13:21:35;8;7;
77365;PMS5003;66430;50.182;11.704;2023-03-18T13:24:03;6;6;
77365;PMS5003;66430;50.182;11.704;2023-03-18T13:26:27;6;5;
77365;PMS5003;66430;50.182;11.704;2023-03-18T13:28:54;9;7;
77365;PMS5003;66430;50.182;11.704;2023-03-18T13:31:19;6;6;
77365;PMS5003;66430;50.182;11.704;2023-03-18T13:36:09;6;6;
77365;PMS5003;66430;50.182;11.704;2023-03-18T13:38:39;8;7;
77365;PMS5003;66430;50.182;11.704;2023-03-18T13:41:05;7;6;
77365;PMS5003;66430;50.182;11.704;2023-03-18T13:43:22;9;9;
77365;PMS5003;66430;50.182;11.704;2023-03-18T13:45:47;12;10;
77365;PMS5003;66430;50.182;11.704;2023-03-18T13:48:13;5;5;
77365;PMS5003;66430;50.182;11.704;2023-03-18T13:50:38;7;7;
77365;PMS5003;66430;50.182;11.704;2023-03-18T13:53:03;8;6;
77365;PMS5003;66430;50.182;11.704;2023-03-18T13:55:30;9;8;
77365;PMS5003;66430;50.182;11.704;2023-03-18T13:57:54;7;6;
77365;PMS5003;66430;50.182;11.704;2023-03-18T14:00:22;8;7;
77365;PMS5003;66430;50.182;11.704;2023-03-18T14:02:44;8;6;
77365;PMS5003;66430;50.182;11.704;2023-03-18T14:07:38;11;9;
77365;PMS5003;66430;50.182;11.704;2023-03-18T14:10:14;5;5;
77365;PMS5003;66430;50.182;11.704;2023-03-18T14:14:53;7;6;
77365;PMS5003;66430;50.182;11.704;2023-03-18T14:17:17;5;5;
77365;PMS5003;66430;50.182;11.704;2023-03-18T14:19:41;6;6;
77365;PMS5003;66430;50.182;11.704;2023-03-18T14:22:07;8;8;
77365;PMS5003;66430;50.182;11.704;2023-03-18T14:24:32;6;6;
77365;PMS5003;66430;50.182;11.704;2023-03-18T14:29:23;7;7;
77365;PMS5003;66430;50.182;11.704;2023-03-18T14:31:49;12;8;
77365;PMS5003;66430;50.182;11.704;2023-03-18T14:36:44;7;7;
77365;PMS5003;66430;50.182;11.704;2023-03-18T14:39:04;6;6;
77365;PMS5003;66430;50.182;11.704;2023-03-18T14:41:30;7;7;
77365;PMS5003;66430;50.182;11.704;2023-03-18T14:44:04;7;7;
77365;PMS5003;66430;50.182;11.704;2023-03-18T14:46:21;7;6;
77365;PMS5003;66430;50.182;11.704;2023-03-18T14:48:49;8;7;
77365;PMS5003;66430;50.182;11.704;2023-03-18T14:51:12;8;8;
77365;PMS5003;66430;50.182;11.704;2023-03-18T14:53:37;8;6;
77365;PMS5003;66430;50.182;11.704;2023-03-18T14:56:02;7;7;
77365;PMS5003;66430;50.182;11.704;2023-03-18T14:58:27;3;3;
77365;PMS5003;66430;50.182;11.704;2023-03-18T15:00:53;8;7;
77365;PMS5003;66430;50.182;11.704;2023-03-18T15:03:20;7;6;
77365;PMS5003;66430;50.182;11.704;2023-03-18T15:05:43;4;4;
77365;PMS5003;66430;50.182;11.704;2023-03-18T15:08:11;7;6;
77365;PMS5003;66430;50.182;11.704;2023-03-18T15:10:34;7;6;
77365;PMS5003;66430;50.182;11.704;2023-03-18T15:13:00;8;8;
77365;PMS5003;66430;50.182;11.704;2023-03-18T15:15:25;6;5;
77365;PMS5003;66430;50.182;11.704;2023-03-18T15:17:50;8;7;
77365;PMS5003;66430;50.182;11.704;2023-03-18T15:20:15;6;6;
77365;PMS5003;66430;50.182;11.704;2023-03-18T15:22:40;7;6;
77365;PMS5003;66430;50.182;11.704;2023-03-18T15:25:06;7;5;
77365;PMS5003;66430;50.182;11.704;2023-03-18T15:27:31;6;5;
77365;PMS5003;66430;50.182;11.704;2023-03-18T15:29:57;7;5;
77365;PMS5003;66430;50.182;11.704;2023-03-18T15:32:22;5;5;
77365;PMS5003;66430;50.182;11.704;2023-03-18T15:34:50;5;4;
77365;PMS5003;66430;50.182;11.704;2023-03-18T15:37:22;5;4;
77365;PMS5003;66430;50.182;11.704;2023-03-18T15:39:39;7;6;
77365;PMS5003;66430;50.182;11.704;2023-03-18T15:42:11;5;5;
77365;PMS5003;66430;50.182;11.704;2023-03-18T15:44:30;6;5;
77365;PMS5003;66430;50.182;11.704;2023-03-18T15:46:54;9;9;
77365;PMS5003;66430;50.182;11.704;2023-03-18T15:49:23;8;7;
77365;PMS5003;66430;50.182;11.704;2023-03-18T15:51:45;7;7;
77365;PMS5003;66430;50.182;11.704;2023-03-18T15:54:14;5;5;
77365;PMS5003;66430;50.182;11.704;2023-03-18T15:56:36;8;8;
77365;PMS5003;66430;50.182;11.704;2023-03-18T15:59:02;8;5;
77365;PMS5003;66430;50.182;11.704;2023-03-18T16:01:26;7;7;
77365;PMS5003;66430;50.182;11.704;2023-03-18T16:03:52;7;6;
77365;PMS5003;66430;50.182;11.704;2023-03-18T16:06:17;10;10;
77365;PMS5003;66430;50.182;11.704;2023-03-18T16:08:42;7;7;